sensor_id;sensor_type;location;lat;lon;timestamp;pressure;altitude;pressure_sealevel;temperature;humidity
14269;BME280;7218;51.480;7.006;2022-11-20T00:01:05;100439.97;;;-0.69;100.00
14269;BME280;7218;51.480;7.006;2022-11-20T00:03:32;100437.41;;;-0.69;100.00
14269;BME280;7218;51.480;7.006;2022-11-20T00:06:00;100434.91;;;-0.68;100.00
14269;BME280;7218;51.480;7.006;2022-11-20T00:08:27;100432.84;;;-0.79;100.00
14269;BME280;7218;51.480;7.006;2022-11-20T00:10:53;100418.47;;;-0.74;100.00
14269;BME280;7218;51.480;7.006;2022-11-20T00:13:20;100425.44;;;-0.70;100.00
14269;BME280;7218;51.480;7.006;2022-11-20T00:15:47;100420.09;;;-0.78;100.00
14269;BME280;7218;51.480;7.006;2022-11-20T00:18:14;100415.03;;;-0.76;100.00
14269;BME280;7218;51.480;7.006;2022-11-20T00:20:41;100411.78;;;-0.69;100.00
14269;BME280;7218;51.480;7.006;2022-11-20T00:23:09;100412.59;;;-0.72;100.00
14269;BME280;7218;51.480;7.006;2022-11-20T00:25:36;100422.84;;;-0.72;100.00
14269;BME280;7218;51.480;7.006;2022-11-20T00:28:03;100415.91;;;-0.76;100.00
14269;BME280;7218;51.480;7.006;2022-11-20T00:30:30;100414.03;;;-0.81;100.00
14269;BME280;7218;51.480;7.006;2022-11-20T00:32:56;100417.34;;;-0.84;100.00
14269;BME280;7218;51.480;7.006;2022-11-20T00:35:23;100414.03;;;-0.81;100.00
14269;BME280;7218;51.480;7.006;2022-11-20T00:37:50;100416.66;;;-0.78;100.00
14269;BME280;7218;51.480;7.006;2022-11-20T00:40:18;100419.97;;;-0.82;100.00
14269;BME280;7218;51.480;7.006;2022-11-20T00:42:44;100423.09;;;-0.93;100.00
14269;BME280;7218;51.480;7.006;2022-11-20T00:45:10;100424.84;;;-0.92;100.00
14269;BME280;7218;51.480;7.006;2022-11-20T00:47:37;100427.16;;;-0.99;100.00
14269;BME280;7218;51.480;7.006;2022-11-20T00:50:04;100422.66;;;-1.08;100.00
14269;BME280;7218;51.480;7.006;2022-11-20T00:52:31;100412.34;;;-1.09;100.00
14269;BME280;7218;51.480;7.006;2022-11-20T00:54:57;100416.09;;;-1.00;100.00
14269;BME280;7218;51.480;7.006;2022-11-20T00:57:25;100419.66;;;-0.93;100.00
14269;BME280;7218;51.480;7.006;2022-11-20T00:59:51;100423.69;;;-1.01;100.00
14269;BME280;7218;51.480;7.006;2022-11-20T01:02:18;100426.22;;;-1.03;100.00
14269;BME280;7218;51.480;7.006;2022-11-20T01:04:44;100425.47;;;-0.99;100.00
14269;BME280;7218;51.480;7.006;2022-11-20T01:07:10;100417.03;;;-0.96;100.00
14269;BME280;7218;51.480;7.006;2022-11-20T01:09:37;100417.09;;;-0.93;100.00
14269;BME280;7218;51.480;7.006;2022-11-20T01:12:04;100424.88;;;-0.90;100.00
14269;BME280;7218;51.480;7.006;2022-11-20T01:14:32;100411.41;;;-0.83;100.00
14269;BME280;7218;51.480;7.006;2022-11-20T01:16:58;100412.84;;;-0.93;100.00
14269;BME280;7218;51.480;7.006;2022-11-20T01:19:24;100406.69;;;-0.99;100.00
14269;BME280;7218;51.480;7.006;2022-11-20T01:21:53;100401.50;;;-1.02;100.00
14269;BME280;7218;51.480;7.006;2022-11-20T01:24:21;100402.44;;;-0.99;100.00
14269;BME280;7218;51.480;7.006;2022-11-20T01:26:50;100404.13;;;-0.99;100.00
14269;BME280;7218;51.480;7.006;2022-11-20T01:29:19;100388.56;;;-1.07;100.00
14269;BME280;7218;51.480;7.006;2022-11-20T01:31:47;100384.50;;;-1.00;100.00
14269;BME280;7218;51.480;7.006;2022-11-20T01:34:15;100383.72;;;-0.98;100.00
14269;BME280;7218;51.480;7.006;2022-11-20T01:36:43;100378.59;;;-0.98;100.00
14269;BME280;7218;51.480;7.006;2022-11-20T01:39:11;100382.22;;;-0.90;100.00
14269;BME280;7218;51.480;7.006;2022-11-20T01:41:38;100377.78;;;-0.97;100.00
14269;BME280;7218;51.480;7.006;2022-11-20T01:44:47;100381.44;;;-0.87;100.00
14269;BME280;7218;51.480;7.006;2022-11-20T01:47:17;100384.78;;;-0.90;100.00
14269;BME280;7218;51.480;7.006;2022-11-20T01:49:48;100384.13;;;-0.82;100.00
14269;BME280;7218;51.480;7.006;2022-11-20T01:52:20;100391.88;;;-0.79;100.00
14269;BME280;7218;51.480;7.006;2022-11-20T01:54:51;100397.81;;;-0.82;100.00
14269;BME280;7218;51.480;7.006;2022-11-20T01:57:21;100402.34;;;-0.72;100.00
14269;BME280;7218;51.480;7.006;2022-11-20T01:59:53;100394.75;;;-0.69;100.00
14269;BME280;7218;51.480;7.006;2022-11-20T02:02:24;100395.19;;;-0.83;100.00
14269;BME280;7218;51.480;7.006;2022-11-20T02:04:51;100388.22;;;-0.89;100.00
14269;BME280;7218;51.480;7.006;2022-11-20T02:07:20;100385.38;;;-1.00;100.00
14269;BME280;7218;51.480;7.006;2022-11-20T02:09:48;100375.81;;;-1.05;100.00
14269;BME280;7218;51.480;7.006;2022-11-20T02:12:15;100376.53;;;-1.09;100.00
14269;BME280;7218;51.480;7.006;2022-11-20T02:14:56;100370.59;;;-1.08;100.00
14269;BME280;7218;51.480;7.006;2022-11-20T02:17:25;100369.72;;;-1.10;100.00
14269;BME280;7218;51.480;7.006;2022-11-20T02:19:51;100373.81;;;-1.15;100.00
14269;BME280;7218;51.480;7.006;2022-11-20T02:22:21;100371.41;;;-1.09;100.00
14269;BME280;7218;51.480;7.006;2022-11-20T02:24:53;100360.38;;;-1.08;100.00
14269;BME280;7218;51.480;7.006;2022-11-20T02:27:20;100364.47;;;-1.15;100.00
14269;BME280;7218;51.480;7.006;2022-11-20T02:29:50;100365.41;;;-1.11;100.00
14269;BME280;7218;51.480;7.006;2022-11-20T02:32:18;100372.94;;;-0.86;100.00
14269;BME280;7218;51.480;7.006;2022-11-20T02:34:45;100365.28;;;-0.84;100.00
14269;BME280;7218;51.480;7.006;2022-11-20T02:37:12;100360.34;;;-0.78;100.00
14269;BME280;7218;51.480;7.006;2022-11-20T02:39:39;100362.16;;;-0.74;100.00
14269;BME280;7218;51.480;7.006;2022-11-20T02:42:07;100358.78;;;-0.73;100.00
14269;BME280;7218;51.480;7.006;2022-11-20T02:44:34;100355.44;;;-0.71;100.00
14269;BME280;7218;51.480;7.006;2022-11-20T02:47:00;100338.47;;;-0.67;100.00
14269;BME280;7218;51.480;7.006;2022-11-20T02:49:27;100353.06;;;-0.65;100.00
14269;BME280;7218;51.480;7.006;2022-11-20T02:51:54;100351.38;;;-0.63;100.00
14269;BME280;7218;51.480;7.006;2022-11-20T02:54:20;100351.59;;;-0.55;100.00
14269;BME280;7218;51.480;7.006;2022-11-20T02:56:46;100350.09;;;-0.47;100.00
14269;BME280;7218;51.480;7.006;2022-11-20T02:59:14;100351.03;;;-0.45;100.00
14269;BME280;7218;51.480;7.006;2022-11-20T03:01:41;100346.94;;;-0.37;100.00
14269;BME280;7218;51.480;7.006;2022-11-20T03:04:07;100353.09;;;-0.30;100.00
14269;BME280;7218;51.480;7.006;2022-11-20T03:06:34;100343.47;;;-0.39;100.00
14269;BME280;7218;51.480;7.006;2022-11-20T03:09:01;100343.59;;;-0.34;100.00
14269;BME280;7218;51.480;7.006;2022-11-20T03:11:28;100341.88;;;-0.34;100.00
14269;BME280;7218;51.480;7.006;2022-11-20T03:13:54;100345.31;;;-0.35;100.00
14269;BME280;7218;51.480;7.006;2022-11-20T03:16:23;100336.16;;;-0.25;100.00
14269;BME280;7218;51.480;7.006;2022-11-20T03:18:51;100336.81;;;-0.32;100.00
14269;BME280;7218;51.480;7.006;2022-11-20T03:21:18;100342.06;;;-0.28;100.00
14269;BME280;7218;51.480;7.006;2022-11-20T03:23:44;100347.25;;;-0.25;100.00
14269;BME280;7218;51.480;7.006;2022-11-20T03:26:13;100337.38;;;-0.10;100.00
14269;BME280;7218;51.480;7.006;2022-11-20T03:28:40;100334.09;;;-0.04;100.00
14269;BME280;7218;51.480;7.006;2022-11-20T03:31:08;100339.31;;;0.00;100.00
14269;BME280;7218;51.480;7.006;2022-11-20T03:33:37;100334.50;;;0.13;100.00
14269;BME280;7218;51.480;7.006;2022-11-20T03:36:05;100331.06;;;0.12;100.00
14269;BME280;7218;51.480;7.006;2022-11-20T03:38:33;100334.44;;;0.11;100.00
14269;BME280;7218;51.480;7.006;2022-11-20T03:41:00;100333.72;;;0.17;100.00
14269;BME280;7218;51.480;7.006;2022-11-20T03:43:27;100333.81;;;0.20;100.00
14269;BME280;7218;51.480;7.006;2022-11-20T03:45:54;100334.56;;;0.16;100.00
14269;BME280;7218;51.480;7.006;2022-11-20T03:48:20;100325.97;;;0.14;100.00
14269;BME280;7218;51.480;7.006;2022-11-20T03:50:48;100321.97;;;0.25;100.00
14269;BME280;7218;51.480;7.006;2022-11-20T03:53:15;100312.56;;;0.25;100.00
14269;BME280;7218;51.480;7.006;2022-11-20T03:55:41;100316.94;;;0.29;100.00
14269;BME280;7218;51.480;7.006;2022-11-20T03:58:08;100309.16;;;0.25;100.00
14269;BME280;7218;51.480;7.006;2022-11-20T04:00:34;100316.84;;;0.26;100.00
14269;BME280;7218;51.480;7.006;2022-11-20T04:03:02;100313.41;;;0.26;100.00
14269;BME280;7218;51.480;7.006;2022-11-20T04:05:28;100316.03;;;0.27;100.00
14269;BME280;7218;51.480;7.006;2022-11-20T04:07:57;100311.66;;;0.23;100.00
14269;BME280;7218;51.480;7.006;2022-11-20T04:10:23;100319.28;;;0.20;100.00
14269;BME280;7218;51.480;7.006;2022-11-20T04:12:50;100309.81;;;0.18;100.00
14269;BME280;7218;51.480;7.006;2022-11-20T04:15:16;100317.53;;;0.18;100.00
14269;BME280;7218;51.480;7.006;2022-11-20T04:17:43;100312.56;;;0.25;100.00
14269;BME280;7218;51.480;7.006;2022-11-20T04:20:09;100315.78;;;0.17;100.00
14269;BME280;7218;51.480;7.006;2022-11-20T04:22:36;100322.69;;;0.19;100.00
14269;BME280;7218;51.480;7.006;2022-11-20T04:25:04;100314.34;;;0.28;100.00
14269;BME280;7218;51.480;7.006;2022-11-20T04:27:31;100313.41;;;0.24;100.00
14269;BME280;7218;51.480;7.006;2022-11-20T04:29:57;100308.28;;;0.24;100.00
14269;BME280;7218;51.480;7.006;2022-11-20T04:32:24;100313.38;;;0.23;100.00
14269;BME280;7218;51.480;7.006;2022-11-20T04:34:50;100311.66;;;0.23;100.00
14269;BME280;7218;51.480;7.006;2022-11-20T04:37:16;100313.31;;;0.20;100.00
14269;BME280;7218;51.480;7.006;2022-11-20T04:39:43;100320.09;;;0.18;100.00
14269;BME280;7218;51.480;7.006;2022-11-20T04:42:11;100314.97;;;0.18;100.00
14269;BME280;7218;51.480;7.006;2022-11-20T04:44:56;100308.84;;;0.13;100.00
14269;BME280;7218;51.480;7.006;2022-11-20T04:47:22;100311.47;;;0.14;100.00
14269;BME280;7218;51.480;7.006;2022-11-20T04:49:49;100307.94;;;0.11;100.00
14269;BME280;7218;51.480;7.006;2022-11-20T04:52:15;100307.72;;;0.02;100.00
14269;BME280;7218;51.480;7.006;2022-11-20T04:54:41;100307.59;;;-0.05;100.00
14269;BME280;7218;51.480;7.006;2022-11-20T04:57:08;100304.19;;;-0.04;100.00
14269;BME280;7218;51.480;7.006;2022-11-20T04:59:36;100300.91;;;0.02;100.00
14269;BME280;7218;51.480;7.006;2022-11-20T05:02:02;100300.72;;;-0.07;100.00
14269;BME280;7218;51.480;7.006;2022-11-20T05:04:29;100295.38;;;-0.15;100.00
14269;BME280;7218;51.480;7.006;2022-11-20T05:06:55;100308.09;;;-0.19;100.00
14269;BME280;7218;51.480;7.006;2022-11-20T05:09:21;100316.81;;;-0.13;100.00
14269;BME280;7218;51.480;7.006;2022-11-20T05:11:48;100309.97;;;-0.12;100.00
14269;BME280;7218;51.480;7.006;2022-11-20T05:14:14;100313.59;;;-0.04;100.00
14269;BME280;7218;51.480;7.006;2022-11-20T05:16:42;100312.13;;;0.07;100.00
14269;BME280;7218;51.480;7.006;2022-11-20T05:19:09;100304.69;;;0.18;100.00
14269;BME280;7218;51.480;7.006;2022-11-20T05:21:35;100311.56;;;0.19;100.00
14269;BME280;7218;51.480;7.006;2022-11-20T05:24:02;100310.75;;;0.20;100.00
14269;BME280;7218;51.480;7.006;2022-11-20T05:26:29;100311.72;;;0.25;100.00
14269;BME280;7218;51.480;7.006;2022-11-20T05:28:56;100310.13;;;0.30;100.00
14269;BME280;7218;51.480;7.006;2022-11-20T05:31:24;100309.44;;;0.38;100.00
14269;BME280;7218;51.480;7.006;2022-11-20T05:33:52;100304.38;;;0.41;100.00
14269;BME280;7218;51.480;7.006;2022-11-20T05:36:19;100312.88;;;0.40;100.00
14269;BME280;7218;51.480;7.006;2022-11-20T05:38:45;100314.63;;;0.41;100.00
14269;BME280;7218;51.480;7.006;2022-11-20T05:41:13;100304.59;;;0.52;100.00
14269;BME280;7218;51.480;7.006;2022-11-20T05:43:42;100305.63;;;0.60;100.00
14269;BME280;7218;51.480;7.006;2022-11-20T05:46:10;100309.09;;;0.62;100.00
14269;BME280;7218;51.480;7.006;2022-11-20T05:48:39;100307.34;;;0.61;100.00
14269;BME280;7218;51.480;7.006;2022-11-20T05:51:08;100308.19;;;0.60;100.00
14269;BME280;7218;51.480;7.006;2022-11-20T05:53:36;100310.88;;;0.66;100.00
14269;BME280;7218;51.480;7.006;2022-11-20T05:56:04;100315.22;;;0.69;100.00
14269;BME280;7218;51.480;7.006;2022-11-20T05:58:31;100304.16;;;0.71;100.00
14269;BME280;7218;51.480;7.006;2022-11-20T06:01:04;100298.28;;;0.77;100.00
14269;BME280;7218;51.480;7.006;2022-11-20T06:03:30;100304.22;;;0.74;100.00
14269;BME280;7218;51.480;7.006;2022-11-20T06:05:58;100297.41;;;0.76;100.00
14269;BME280;7218;51.480;7.006;2022-11-20T06:08:26;100288.94;;;0.80;100.00
14269;BME280;7218;51.480;7.006;2022-11-20T06:10:52;100296.56;;;0.77;100.00
14269;BME280;7218;51.480;7.006;2022-11-20T06:13:19;100293.88;;;0.71;100.00
14269;BME280;7218;51.480;7.006;2022-11-20T06:15:48;100294.03;;;0.79;100.00
14269;BME280;7218;51.480;7.006;2022-11-20T06:18:14;100298.44;;;0.84;100.00
14269;BME280;7218;51.480;7.006;2022-11-20T06:20:41;100288.97;;;0.82;100.00
14269;BME280;7218;51.480;7.006;2022-11-20T06:23:07;100288.84;;;0.76;100.00
14269;BME280;7218;51.480;7.006;2022-11-20T06:25:38;100294.94;;;0.81;100.00
14269;BME280;7218;51.480;7.006;2022-11-20T06:28:04;100291.44;;;0.77;100.00
14269;BME280;7218;51.480;7.006;2022-11-20T06:30:31;100305.94;;;0.75;100.00
14269;BME280;7218;51.480;7.006;2022-11-20T06:32:57;100313.53;;;0.69;100.00
14269;BME280;7218;51.480;7.006;2022-11-20T06:35:24;100302.50;;;0.73;100.00
14269;BME280;7218;51.480;7.006;2022-11-20T06:37:50;100304.88;;;0.66;100.00
14269;BME280;7218;51.480;7.006;2022-11-20T06:40:17;100297.97;;;0.62;100.00
14269;BME280;7218;51.480;7.006;2022-11-20T06:42:45;100297.13;;;0.63;100.00
14269;BME280;7218;51.480;7.006;2022-11-20T06:45:11;100307.16;;;0.52;100.00
14269;BME280;7218;51.480;7.006;2022-11-20T06:47:37;100309.59;;;0.46;100.00
14269;BME280;7218;51.480;7.006;2022-11-20T06:50:05;100313.91;;;0.47;100.00
14269;BME280;7218;51.480;7.006;2022-11-20T06:52:31;100313.06;;;0.48;100.00
14269;BME280;7218;51.480;7.006;2022-11-20T06:54:58;100312.88;;;0.40;100.00
14269;BME280;7218;51.480;7.006;2022-11-20T06:57:25;100314.47;;;0.34;100.00
14269;BME280;7218;51.480;7.006;2022-11-20T06:59:53;100306.84;;;0.37;100.00
14269;BME280;7218;51.480;7.006;2022-11-20T07:02:19;100309.34;;;0.35;100.00
14269;BME280;7218;51.480;7.006;2022-11-20T07:04:46;100314.38;;;0.29;100.00
14269;BME280;7218;51.480;7.006;2022-11-20T07:07:12;100318.53;;;0.26;100.00
14269;BME280;7218;51.480;7.006;2022-11-20T07:09:38;100325.16;;;0.15;100.00
14269;BME280;7218;51.480;7.006;2022-11-20T07:12:05;100325.25;;;0.19;100.00
14269;BME280;7218;51.480;7.006;2022-11-20T07:14:32;100331.31;;;0.23;100.00
14269;BME280;7218;51.480;7.006;2022-11-20T07:17:00;100333.00;;;0.22;100.00
14269;BME280;7218;51.480;7.006;2022-11-20T07:19:26;100336.34;;;0.18;100.00
14269;BME280;7218;51.480;7.006;2022-11-20T07:21:53;100333.41;;;0.03;100.00
14269;BME280;7218;51.480;7.006;2022-11-20T07:24:19;100335.06;;;0.01;100.00
14269;BME280;7218;51.480;7.006;2022-11-20T07:26:46;100335.00;;;-0.02;100.00
14269;BME280;7218;51.480;7.006;2022-11-20T07:29:14;100332.53;;;0.03;100.00
14269;BME280;7218;51.480;7.006;2022-11-20T07:31:41;100326.75;;;0.10;100.00
14269;BME280;7218;51.480;7.006;2022-11-20T07:34:09;100334.84;;;0.28;100.00
14269;BME280;7218;51.480;7.006;2022-11-20T07:36:36;100330.84;;;0.39;100.00
14269;BME280;7218;51.480;7.006;2022-11-20T07:39:03;100335.09;;;0.40;100.00
14269;BME280;7218;51.480;7.006;2022-11-20T07:41:29;100328.25;;;0.39;100.00
14269;BME280;7218;51.480;7.006;2022-11-20T07:43:56;100330.84;;;0.39;100.00
14269;BME280;7218;51.480;7.006;2022-11-20T07:46:22;100339.50;;;0.44;100.00
14269;BME280;7218;51.480;7.006;2022-11-20T07:48:49;100331.13;;;0.53;100.00
14269;BME280;7218;51.480;7.006;2022-11-20T07:51:17;100324.34;;;0.56;100.00
14269;BME280;7218;51.480;7.006;2022-11-20T07:53:43;100318.47;;;0.62;100.00
14269;BME280;7218;51.480;7.006;2022-11-20T07:56:10;100316.09;;;0.69;100.00
14269;BME280;7218;51.480;7.006;2022-11-20T07:58:36;100318.63;;;0.68;100.00
14269;BME280;7218;51.480;7.006;2022-11-20T08:01:03;100311.94;;;0.74;100.00
14269;BME280;7218;51.480;7.006;2022-11-20T08:03:30;100311.06;;;0.74;100.00
14269;BME280;7218;51.480;7.006;2022-11-20T08:05:58;100310.31;;;0.81;100.00
14269;BME280;7218;51.480;7.006;2022-11-20T08:08:26;100308.56;;;0.78;100.00
14269;BME280;7218;51.480;7.006;2022-11-20T08:10:53;100307.53;;;0.70;100.00
14269;BME280;7218;51.480;7.006;2022-11-20T08:13:40;100305.75;;;0.66;100.00
14269;BME280;7218;51.480;7.006;2022-11-20T08:16:24;100298.81;;;0.62;100.00
14269;BME280;7218;51.480;7.006;2022-11-20T08:18:51;100297.97;;;0.62;100.00
14269;BME280;7218;51.480;7.006;2022-11-20T08:21:17;100304.91;;;0.67;100.00
14269;BME280;7218;51.480;7.006;2022-11-20T08:23:45;100299.91;;;0.73;100.00
14269;BME280;7218;51.480;7.006;2022-11-20T08:26:12;100296.63;;;0.80;100.00
14269;BME280;7218;51.480;7.006;2022-11-20T08:28:38;100304.41;;;0.85;100.00
14269;BME280;7218;51.480;7.006;2022-11-20T08:31:05;100312.31;;;0.96;100.00
14269;BME280;7218;51.480;7.006;2022-11-20T08:33:31;100308.22;;;1.04;100.00
14269;BME280;7218;51.480;7.006;2022-11-20T08:35:59;100307.63;;;1.17;100.00
14269;BME280;7218;51.480;7.006;2022-11-20T08:38:26;100302.44;;;1.15;100.00
14269;BME280;7218;51.480;7.006;2022-11-20T08:40:57;100311.00;;;1.14;100.00
14269;BME280;7218;51.480;7.006;2022-11-20T08:43:42;100312.91;;;1.26;100.00
14269;BME280;7218;51.480;7.006;2022-11-20T08:46:08;100313.06;;;1.34;100.00
14269;BME280;7218;51.480;7.006;2022-11-20T08:48:35;100310.78;;;1.50;100.00
14269;BME280;7218;51.480;7.006;2022-11-20T08:51:02;100306.69;;;1.61;100.00
14269;BME280;7218;51.480;7.006;2022-11-20T08:53:28;100319.81;;;1.77;100.00
14269;BME280;7218;51.480;7.006;2022-11-20T08:55:57;100312.38;;;1.93;100.00
14269;BME280;7218;51.480;7.006;2022-11-20T08:58:24;100318.41;;;1.97;100.00
14269;BME280;7218;51.480;7.006;2022-11-20T09:00:51;100317.72;;;2.07;100.00
14269;BME280;7218;51.480;7.006;2022-11-20T09:03:18;100316.28;;;2.26;100.00
14269;BME280;7218;51.480;7.006;2022-11-20T09:05:44;100317.34;;;2.38;100.00
14269;BME280;7218;51.480;7.006;2022-11-20T09:08:11;100312.31;;;2.47;100.00
14269;BME280;7218;51.480;7.006;2022-11-20T09:10:37;100309.06;;;2.60;100.00
14269;BME280;7218;51.480;7.006;2022-11-20T09:13:06;100312.75;;;2.81;100.00
14269;BME280;7218;51.480;7.006;2022-11-20T09:15:33;100310.16;;;2.81;99.45
14269;BME280;7218;51.480;7.006;2022-11-20T09:18:01;100307.75;;;2.93;99.77
14269;BME280;7218;51.480;7.006;2022-11-20T09:20:29;100314.66;;;2.97;100.00
14269;BME280;7218;51.480;7.006;2022-11-20T09:22:56;100305.22;;;2.97;99.46
14269;BME280;7218;51.480;7.006;2022-11-20T09:25:23;100298.47;;;3.07;99.35
14269;BME280;7218;51.480;7.006;2022-11-20T09:27:54;100294.41;;;3.30;99.09
14269;BME280;7218;51.480;7.006;2022-11-20T09:30:22;100286.81;;;3.42;98.29
14269;BME280;7218;51.480;7.006;2022-11-20T09:32:49;100290.28;;;3.49;98.94
14269;BME280;7218;51.480;7.006;2022-11-20T09:35:16;100282.69;;;3.61;98.53
14269;BME280;7218;51.480;7.006;2022-11-20T09:37:43;100275.84;;;3.69;98.19
14269;BME280;7218;51.480;7.006;2022-11-20T09:40:18;100277.72;;;3.87;98.44
14269;BME280;7218;51.480;7.006;2022-11-20T09:42:47;100274.34;;;3.93;97.70
14269;BME280;7218;51.480;7.006;2022-11-20T09:45:27;100277.84;;;4.05;97.21
14269;BME280;7218;51.480;7.006;2022-11-20T09:48:10;100269.34;;;4.18;96.76
14269;BME280;7218;51.480;7.006;2022-11-20T09:50:43;100265.13;;;4.36;96.82
14269;BME280;7218;51.480;7.006;2022-11-20T09:53:18;100274.75;;;4.58;96.27
14269;BME280;7218;51.480;7.006;2022-11-20T09:55:48;100259.28;;;4.70;96.38
14269;BME280;7218;51.480;7.006;2022-11-20T09:58:24;100260.22;;;4.87;96.60
14269;BME280;7218;51.480;7.006;2022-11-20T10:00:53;100259.31;;;4.81;95.23
14269;BME280;7218;51.480;7.006;2022-11-20T10:03:29;100261.03;;;4.80;95.02
14269;BME280;7218;51.480;7.006;2022-11-20T10:06:02;100250.72;;;4.85;95.53
14269;BME280;7218;51.480;7.006;2022-11-20T10:08:35;100256.75;;;4.90;95.50
14269;BME280;7218;51.480;7.006;2022-11-20T10:11:09;100245.59;;;5.09;95.86
14269;BME280;7218;51.480;7.006;2022-11-20T10:13:46;100232.19;;;7.29;86.74
14269;BME280;7218;51.480;7.006;2022-11-20T10:16:26;100229.38;;;9.69;76.14
14269;BME280;7218;51.480;7.006;2022-11-20T10:19:07;100223.09;;;11.12;64.69
14269;BME280;7218;51.480;7.006;2022-11-20T10:21:44;100224.22;;;11.76;58.16
14269;BME280;7218;51.480;7.006;2022-11-20T10:27:24;100222.13;;;11.90;56.71
14269;BME280;7218;51.480;7.006;2022-11-20T10:30:00;100228.56;;;11.02;56.50
14269;BME280;7218;51.480;7.006;2022-11-20T10:32:34;100221.06;;;10.87;61.02
14269;BME280;7218;51.480;7.006;2022-11-20T10:35:07;100219.00;;;9.67;62.39
14269;BME280;7218;51.480;7.006;2022-11-20T10:37:43;100217.25;;;8.48;69.07
14269;BME280;7218;51.480;7.006;2022-11-20T10:40:20;100210.75;;;7.04;75.36
14269;BME280;7218;51.480;7.006;2022-11-20T10:42:51;100217.13;;;6.30;79.16
14269;BME280;7218;51.480;7.006;2022-11-20T10:45:31;100202.44;;;6.34;81.66
14269;BME280;7218;51.480;7.006;2022-11-20T10:48:10;100197.34;;;6.03;82.18
14269;BME280;7218;51.480;7.006;2022-11-20T10:50:41;100193.91;;;5.86;84.66
14269;BME280;7218;51.480;7.006;2022-11-20T10:53:19;100201.72;;;5.35;86.80
14269;BME280;7218;51.480;7.006;2022-11-20T10:55:54;100202.53;;;5.79;85.16
14269;BME280;7218;51.480;7.006;2022-11-20T10:58:29;100199.13;;;5.47;87.09
14269;BME280;7218;51.480;7.006;2022-11-20T11:01:05;100193.09;;;5.37;87.47
14269;BME280;7218;51.480;7.006;2022-11-20T11:03:32;100191.34;;;5.53;87.61
14269;BME280;7218;51.480;7.006;2022-11-20T11:06:03;100193.09;;;5.36;87.51
14269;BME280;7218;51.480;7.006;2022-11-20T11:08:36;100196.53;;;5.59;87.43
14269;BME280;7218;51.480;7.006;2022-11-20T11:11:15;100193.09;;;5.17;89.00
14269;BME280;7218;51.480;7.006;2022-11-20T11:13:44;100190.50;;;5.51;87.92
14269;BME280;7218;51.480;7.006;2022-11-20T11:16:20;100184.44;;;5.79;86.74
14269;BME280;7218;51.480;7.006;2022-11-20T11:18:48;100182.69;;;6.05;87.85
14269;BME280;7218;51.480;7.006;2022-11-20T11:21:21;100173.97;;;6.32;86.58
14269;BME280;7218;51.480;7.006;2022-11-20T11:23:57;100171.38;;;6.29;85.05
14269;BME280;7218;51.480;7.006;2022-11-20T11:26:24;100161.91;;;6.25;84.96
14269;BME280;7218;51.480;7.006;2022-11-20T11:28:55;100156.72;;;6.28;85.31
14269;BME280;7218;51.480;7.006;2022-11-20T11:31:23;100155.00;;;6.30;85.64
14269;BME280;7218;51.480;7.006;2022-11-20T11:33:51;100149.88;;;6.15;86.55
14269;BME280;7218;51.480;7.006;2022-11-20T11:36:21;100160.28;;;5.85;87.32
14269;BME280;7218;51.480;7.006;2022-11-20T11:38:51;100145.59;;;6.13;87.58
14269;BME280;7218;51.480;7.006;2022-11-20T11:41:20;100143.00;;;6.07;87.04
14269;BME280;7218;51.480;7.006;2022-11-20T11:43:53;100139.47;;;6.23;87.73
14269;BME280;7218;51.480;7.006;2022-11-20T11:46:39;100138.63;;;6.22;87.16
14269;BME280;7218;51.480;7.006;2022-11-20T11:49:17;100125.75;;;6.05;86.92
14269;BME280;7218;51.480;7.006;2022-11-20T11:51:56;100127.38;;;6.31;87.08
14269;BME280;7218;51.480;7.006;2022-11-20T11:54:28;100115.28;;;6.30;86.46
14269;BME280;7218;51.480;7.006;2022-11-20T11:56:59;100113.59;;;6.20;87.20
14269;BME280;7218;51.480;7.006;2022-11-20T11:59:34;100115.34;;;6.21;86.64
14269;BME280;7218;51.480;7.006;2022-11-20T12:02:15;100110.94;;;6.35;87.48
14269;BME280;7218;51.480;7.006;2022-11-20T12:04:54;100103.19;;;6.35;85.53
14269;BME280;7218;51.480;7.006;2022-11-20T12:07:29;100097.16;;;6.31;86.82
14269;BME280;7218;51.480;7.006;2022-11-20T12:10:03;100087.78;;;6.06;87.48
14269;BME280;7218;51.480;7.006;2022-11-20T12:12:32;100087.75;;;6.14;88.38
14269;BME280;7218;51.480;7.006;2022-11-20T12:15:04;100082.56;;;6.17;88.26
14269;BME280;7218;51.480;7.006;2022-11-20T12:17:31;100078.28;;;6.10;88.20
14269;BME280;7218;51.480;7.006;2022-11-20T12:19:58;100080.00;;;6.09;88.71
14269;BME280;7218;51.480;7.006;2022-11-20T12:22:33;100080.00;;;6.11;88.29
14269;BME280;7218;51.480;7.006;2022-11-20T12:25:08;100080.88;;;6.03;89.42
14269;BME280;7218;51.480;7.006;2022-11-20T12:28:03;100078.31;;;6.00;90.04
14269;BME280;7218;51.480;7.006;2022-11-20T12:30:40;100077.50;;;5.89;90.44
14269;BME280;7218;51.480;7.006;2022-11-20T12:33:22;100077.47;;;5.86;90.48
14269;BME280;7218;51.480;7.006;2022-11-20T12:36:06;100073.16;;;5.84;91.20
14269;BME280;7218;51.480;7.006;2022-11-20T12:38:56;100077.47;;;5.86;90.58
14269;BME280;7218;51.480;7.006;2022-11-20T12:41:36;100077.50;;;5.92;90.10
14269;BME280;7218;51.480;7.006;2022-11-20T12:44:38;100066.28;;;5.92;90.76
14269;BME280;7218;51.480;7.006;2022-11-20T12:47:33;100062.81;;;5.97;91.56
14269;BME280;7218;51.480;7.006;2022-11-20T12:50:08;100057.63;;;5.97;91.31
14269;BME280;7218;51.480;7.006;2022-11-20T12:52:46;100044.66;;;6.02;91.31
14269;BME280;7218;51.480;7.006;2022-11-20T12:55:30;100027.38;;;6.04;91.72
14269;BME280;7218;51.480;7.006;2022-11-20T12:58:05;100033.38;;;6.14;91.95
14269;BME280;7218;51.480;7.006;2022-11-20T13:00:38;100028.19;;;6.17;90.74
14269;BME280;7218;51.480;7.006;2022-11-20T13:03:22;100019.56;;;6.15;91.60
14269;BME280;7218;51.480;7.006;2022-11-20T13:05:58;100018.72;;;6.17;90.96
14269;BME280;7218;51.480;7.006;2022-11-20T13:08:29;100023.03;;;6.17;90.33
14269;BME280;7218;51.480;7.006;2022-11-20T13:11:03;100011.84;;;6.10;90.19
14269;BME280;7218;51.480;7.006;2022-11-20T13:13:39;100008.31;;;6.19;91.27
14269;BME280;7218;51.480;7.006;2022-11-20T13:16:14;99994.47;;;6.26;91.24